createdAt,value
2022-08-09T00:07:00.586Z,7.15
2022-08-09T00:17:05.695Z,6.82
2022-08-09T00:27:07.343Z,6.65
2022-08-09T00:37:10.259Z,6.30
2022-08-09T00:47:15.414Z,5.90
2022-08-09T00:57:33.581Z,5.75
2022-08-09T01:08:00.057Z,5.45
2022-08-09T01:18:14.107Z,5.50
2022-08-09T01:28:16.556Z,5.88
2022-08-09T01:38:24.650Z,6.13
2022-08-09T01:48:29.629Z,6.32
2022-08-09T01:58:33.763Z,5.20
2022-08-09T02:08:58.978Z,5.72
2022-08-09T02:19:08.500Z,5.38
2022-08-09T02:29:25.742Z,5.35
2022-08-09T02:39:33.470Z,5.40
2022-08-09T02:49:41.638Z,6.07
2022-08-09T03:00:21.240Z,5.70
2022-08-09T03:10:07.831Z,6.72
2022-08-09T03:20:11.598Z,7.45
2022-08-09T03:30:29.291Z,7.22
2022-08-09T03:40:35.528Z,7.50
2022-08-09T03:50:40.273Z,6.97
2022-08-09T04:00:47.856Z,7.00
2022-08-09T04:10:49.964Z,6.38
2022-08-09T04:30:53.452Z,6.70
2022-08-09T04:41:01.817Z,12.57
2022-08-09T04:51:04.201Z,7.70
2022-08-09T05:01:16.313Z,7.63
2022-08-09T05:11:30.635Z,6.57
2022-08-09T05:21:47.062Z,7.20
2022-08-09T05:31:57.186Z,6.55
2022-08-09T05:42:01.493Z,6.45
2022-08-09T05:52:07.499Z,6.20
2022-08-09T06:02:10.186Z,6.47
2022-08-09T06:12:12.244Z,6.65
2022-08-09T06:22:15.666Z,6.07
2022-08-09T06:33:13.790Z,5.35
2022-08-09T06:42:44.995Z,4.95
2022-08-09T06:52:48.750Z,5.47
2022-08-09T07:02:51.554Z,4.93
2022-08-09T07:12:57.627Z,6.07
2022-08-09T07:23:19.186Z,5.00
2022-08-09T07:33:23.567Z,6.43
2022-08-09T07:43:29.101Z,4.65
2022-08-09T07:53:36.519Z,4.60
2022-08-09T08:03:55.302Z,6.50
2022-08-09T08:13:57.671Z,4.60
2022-08-09T08:24:11.921Z,4.82
2022-08-09T08:34:20.965Z,4.35
2022-08-09T08:44:29.795Z,4.70
2022-08-09T08:54:31.879Z,4.35
2022-08-09T09:04:41.599Z,6.13
2022-08-09T09:14:52.007Z,4.75
2022-08-09T09:26:01.652Z,3.42
2022-08-09T09:35:21.349Z,4.38
2022-08-09T09:45:25.839Z,3.30
2022-08-09T09:55:32.937Z,5.53
2022-08-09T10:06:03.950Z,4.10
2022-08-09T10:16:55.690Z,3.60
2022-08-09T10:26:26.871Z,3.30
2022-08-09T10:36:31.080Z,3.50
2022-08-09T10:48:12.425Z,4.05
2022-08-09T10:57:41.748Z,3.35
2022-08-09T11:07:57.270Z,3.35
2022-08-09T11:18:03.922Z,3.70
2022-08-09T11:28:38.762Z,3.50
2022-08-09T11:39:02.283Z,4.07
2022-08-09T11:49:05.096Z,4.40
2022-08-09T11:59:09.303Z,3.85
2022-08-09T12:09:19.310Z,3.83
2022-08-09T12:19:32.315Z,4.00
2022-08-09T12:29:52.709Z,4.00
2022-08-09T12:40:08.496Z,4.30
2022-08-09T12:50:19.615Z,3.45
2022-08-09T13:00:34.591Z,3.55
2022-08-09T13:10:53.805Z,4.15
2022-08-09T13:22:33.367Z,4.35
2022-08-09T13:32:13.405Z,4.55
2022-08-09T13:41:57.339Z,5.00
2022-08-09T13:52:04.124Z,5.38
2022-08-09T14:02:12.747Z,3.75
2022-08-09T14:12:21.602Z,4.60
2022-08-09T14:22:26.113Z,3.83
2022-08-09T14:32:34.008Z,4.45
2022-08-09T14:42:40.450Z,3.60
2022-08-09T14:52:42.841Z,5.25
2022-08-09T15:02:47.506Z,3.75
2022-08-09T15:12:56.369Z,4.20
2022-08-09T15:23:02.982Z,4.97
2022-08-09T15:33:57.556Z,4.45
2022-08-09T15:43:43.766Z,4.07
2022-08-09T15:54:04.581Z,4.60
2022-08-09T16:04:13.494Z,4.22
2022-08-09T16:14:31.420Z,4.97
2022-08-09T16:24:36.480Z,4.22
2022-08-09T16:34:55.866Z,3.83
2022-08-09T16:45:01.029Z,5.05
2022-08-09T16:55:03.485Z,4.07
2022-08-09T17:05:14.030Z,4.35
2022-08-09T17:15:59.309Z,5.05
2022-08-09T17:25:52.780Z,4.75
2022-08-09T17:35:56.036Z,4.60
2022-08-09T17:46:03.012Z,9.07
2022-08-09T17:56:08.350Z,4.75
2022-08-09T18:06:14.874Z,5.10
2022-08-09T18:16:35.811Z,3.83
2022-08-09T18:26:51.891Z,4.35
2022-08-09T18:36:58.419Z,4.20
2022-08-09T18:47:07.947Z,3.67
2022-08-09T18:57:12.217Z,2.50
2022-08-09T19:07:23.057Z,2.20
2022-08-09T19:17:31.204Z,2.30
2022-08-09T19:27:52.536Z,9.80
2022-08-09T19:37:57.521Z,2.28
2022-08-09T19:48:03.019Z,3.53
2022-08-09T19:58:16.314Z,2.30
2022-08-09T20:08:24.683Z,2.05
2022-08-09T20:18:35.681Z,1.80
2022-08-09T20:28:48.623Z,1.58
2022-08-09T20:39:27.996Z,1.92
2022-08-09T20:49:28.634Z,1.60
2022-08-09T21:00:19.359Z,2.03
2022-08-09T21:10:01.552Z,1.60
2022-08-09T21:20:25.475Z,2.38
2022-08-09T21:30:28.111Z,2.58
2022-08-09T21:40:32.792Z,1.65
2022-08-09T21:50:39.252Z,1.60
2022-08-09T22:00:52.454Z,2.63
2022-08-09T22:11:48.809Z,1.30
2022-08-09T22:21:22.331Z,1.00
2022-08-09T22:31:25.849Z,1.50
2022-08-09T22:41:29.674Z,1.33
2022-08-09T22:51:33.729Z,1.00
2022-08-09T23:01:42.257Z,1.70
2022-08-09T23:11:44.261Z,1.30
2022-08-09T23:21:49.022Z,1.30
2022-08-09T23:31:54.472Z,1.40
2022-08-09T23:41:57.387Z,1.60
2022-08-09T23:52:12.116Z,1.13
